sensor_id;sensor_type;location;lat;lon;timestamp;pressure;altitude;pressure_sealevel;temperature;humidity
72612;BME280;60655;52.182;4.474;2023-10-19T00:01:43;99069.84;;;11.68;100.00
72612;BME280;60655;52.182;4.474;2023-10-19T00:03:44;99072.81;;;11.77;100.00
72612;BME280;60655;52.182;4.474;2023-10-19T00:05:46;99077.59;;;11.80;100.00
72612;BME280;60655;52.182;4.474;2023-10-19T00:07:47;99066.44;;;11.78;100.00
72612;BME280;60655;52.182;4.474;2023-10-19T00:09:49;99069.59;;;11.85;100.00
72612;BME280;60655;52.182;4.474;2023-10-19T00:11:55;99062.41;;;11.86;100.00
72612;BME280;60655;52.182;4.474;2023-10-19T00:13:56;99069.31;;;11.92;100.00
72612;BME280;60655;52.182;4.474;2023-10-19T00:15:58;99068.00;;;11.84;100.00
72612;BME280;60655;52.182;4.474;2023-10-19T00:18:00;99057.88;;;11.86;100.00
72612;BME280;60655;52.182;4.474;2023-10-19T00:20:20;99063.75;;;11.88;100.00
72612;BME280;60655;52.182;4.474;2023-10-19T00:22:48;99051.50;;;11.92;100.00
72612;BME280;60655;52.182;4.474;2023-10-19T00:24:49;99057.63;;;12.03;100.00
72612;BME280;60655;52.182;4.474;2023-10-19T00:26:50;99058.41;;;12.03;100.00
72612;BME280;60655;52.182;4.474;2023-10-19T00:28:56;99064.81;;;12.02;100.00
72612;BME280;60655;52.182;4.474;2023-10-19T00:30:57;99061.59;;;12.05;100.00
72612;BME280;60655;52.182;4.474;2023-10-19T00:33:04;99053.88;;;12.04;100.00
72612;BME280;60655;52.182;4.474;2023-10-19T00:35:10;99054.91;;;12.13;100.00
72612;BME280;60655;52.182;4.474;2023-10-19T00:37:27;99057.09;;;12.06;100.00
72612;BME280;60655;52.182;4.474;2023-10-19T00:39:30;99039.78;;;12.08;100.00
72612;BME280;60655;52.182;4.474;2023-10-19T00:41:41;99057.56;;;12.18;100.00
72612;BME280;60655;52.182;4.474;2023-10-19T00:43:43;99061.03;;;12.24;100.00
72612;BME280;60655;52.182;4.474;2023-10-19T00:45:44;99052.25;;;12.23;100.00
72612;BME280;60655;52.182;4.474;2023-10-19T00:47:47;99052.78;;;12.20;100.00
72612;BME280;60655;52.182;4.474;2023-10-19T00:49:49;99051.69;;;12.31;100.00
72612;BME280;60655;52.182;4.474;2023-10-19T00:51:52;99041.06;;;12.21;100.00
72612;BME280;60655;52.182;4.474;2023-10-19T00:53:55;99046.38;;;12.31;100.00
72612;BME280;60655;52.182;4.474;2023-10-19T00:55:57;99042.91;;;12.31;100.00
72612;BME280;60655;52.182;4.474;2023-10-19T00:58:00;99048.75;;;12.33;100.00
72612;BME280;60655;52.182;4.474;2023-10-19T01:00:07;99042.91;;;12.36;100.00
72612;BME280;60655;52.182;4.474;2023-10-19T01:02:28;99044.97;;;12.49;100.00
72612;BME280;60655;52.182;4.474;2023-10-19T01:04:29;99050.03;;;12.45;100.00
72612;BME280;60655;52.182;4.474;2023-10-19T01:06:34;99045.75;;;12.49;100.00
72612;BME280;60655;52.182;4.474;2023-10-19T01:08:37;99046.84;;;12.43;100.00
72612;BME280;60655;52.182;4.474;2023-10-19T01:10:42;99047.91;;;12.47;100.00
72612;BME280;60655;52.182;4.474;2023-10-19T01:12:46;99051.34;;;12.53;100.00
72612;BME280;60655;52.182;4.474;2023-10-19T01:17:20;99066.00;;;12.50;100.00
72612;BME280;60655;52.182;4.474;2023-10-19T01:19:23;99052.69;;;12.50;100.00
72612;BME280;60655;52.182;4.474;2023-10-19T01:21:24;99061.97;;;12.63;100.00
72612;BME280;60655;52.182;4.474;2023-10-19T01:23:38;99061.72;;;12.55;100.00
72612;BME280;60655;52.182;4.474;2023-10-19T01:25:46;99067.84;;;12.55;100.00
72612;BME280;60655;52.182;4.474;2023-10-19T01:27:56;99053.47;;;12.56;100.00
72612;BME280;60655;52.182;4.474;2023-10-19T01:29:58;99061.19;;;12.58;100.00
72612;BME280;60655;52.182;4.474;2023-10-19T01:32:02;99056.66;;;12.63;100.00
72612;BME280;60655;52.182;4.474;2023-10-19T01:34:09;99061.38;;;12.71;100.00
72612;BME280;60655;52.182;4.474;2023-10-19T01:36:11;99056.09;;;12.66;100.00
72612;BME280;60655;52.182;4.474;2023-10-19T01:38:15;99034.28;;;12.59;100.00
72612;BME280;60655;52.182;4.474;2023-10-19T01:40:16;99046.19;;;12.77;100.00
72612;BME280;60655;52.182;4.474;2023-10-19T01:42:21;99057.63;;;12.77;100.00
72612;BME280;60655;52.182;4.474;2023-10-19T01:44:22;99045.63;;;12.85;100.00
72612;BME280;60655;52.182;4.474;2023-10-19T01:46:25;99040.56;;;12.83;100.00
72612;BME280;60655;52.182;4.474;2023-10-19T01:48:31;99044.03;;;12.84;100.00
72612;BME280;60655;52.182;4.474;2023-10-19T01:50:37;99037.59;;;12.90;100.00
72612;BME280;60655;52.182;4.474;2023-10-19T01:52:39;99040.53;;;12.89;100.00
72612;BME280;60655;52.182;4.474;2023-10-19T01:54:40;99040.50;;;12.99;100.00
72612;BME280;60655;52.182;4.474;2023-10-19T01:56:42;99035.19;;;12.94;100.00
72612;BME280;60655;52.182;4.474;2023-10-19T01:58:45;99036.22;;;12.98;100.00
72612;BME280;60655;52.182;4.474;2023-10-19T02:00:49;99031.91;;;13.02;100.00
72612;BME280;60655;52.182;4.474;2023-10-19T02:02:50;99033.50;;;13.03;100.00
72612;BME280;60655;52.182;4.474;2023-10-19T02:04:51;99034.84;;;13.00;100.00
72612;BME280;60655;52.182;4.474;2023-10-19T02:06:53;99031.38;;;13.05;100.00
72612;BME280;60655;52.182;4.474;2023-10-19T02:09:01;99032.66;;;13.12;100.00
72612;BME280;60655;52.182;4.474;2023-10-19T02:11:24;99038.00;;;13.17;100.00
72612;BME280;60655;52.182;4.474;2023-10-19T02:13:25;99032.09;;;13.26;100.00
72612;BME280;60655;52.182;4.474;2023-10-19T02:15:26;99015.47;;;13.34;100.00
72612;BME280;60655;52.182;4.474;2023-10-19T02:17:27;99016.47;;;13.43;100.00
72612;BME280;60655;52.182;4.474;2023-10-19T02:19:28;99026.03;;;13.49;100.00
72612;BME280;60655;52.182;4.474;2023-10-19T02:21:29;99023.38;;;13.49;100.00
72612;BME280;60655;52.182;4.474;2023-10-19T02:23:31;99027.59;;;13.55;100.00
72612;BME280;60655;52.182;4.474;2023-10-19T02:25:34;99018.19;;;13.58;100.00
72612;BME280;60655;52.182;4.474;2023-10-19T02:27:38;99020.56;;;13.64;100.00
72612;BME280;60655;52.182;4.474;2023-10-19T02:29:39;99019.13;;;13.77;100.00
72612;BME280;60655;52.182;4.474;2023-10-19T02:31:42;99016.72;;;13.75;100.00
72612;BME280;60655;52.182;4.474;2023-10-19T02:33:44;99015.66;;;13.76;100.00
72612;BME280;60655;52.182;4.474;2023-10-19T02:35:52;99014.81;;;13.81;100.00
72612;BME280;60655;52.182;4.474;2023-10-19T02:37:53;99012.19;;;13.76;100.00
72612;BME280;60655;52.182;4.474;2023-10-19T02:39:55;99008.31;;;13.87;100.00
72612;BME280;60655;52.182;4.474;2023-10-19T02:41:55;98998.72;;;13.86;100.00
72612;BME280;60655;52.182;4.474;2023-10-19T02:43:56;98998.53;;;13.82;100.00
72612;BME280;60655;52.182;4.474;2023-10-19T02:46:16;99005.38;;;13.89;100.00
72612;BME280;60655;52.182;4.474;2023-10-19T02:48:18;99001.72;;;13.84;100.00
72612;BME280;60655;52.182;4.474;2023-10-19T02:50:19;99009.91;;;13.88;100.00
72612;BME280;60655;52.182;4.474;2023-10-19T02:52:23;99005.34;;;13.94;100.00
72612;BME280;60655;52.182;4.474;2023-10-19T02:54:24;98999.44;;;13.97;100.00
72612;BME280;60655;52.182;4.474;2023-10-19T02:56:25;98996.75;;;13.97;100.00
72612;BME280;60655;52.182;4.474;2023-10-19T02:58:27;98996.25;;;13.95;100.00
72612;BME280;60655;52.182;4.474;2023-10-19T03:00:28;98988.56;;;13.88;100.00
72612;BME280;60655;52.182;4.474;2023-10-19T03:02:33;98995.59;;;14.08;100.00
72612;BME280;60655;52.182;4.474;2023-10-19T03:04:34;98984.38;;;14.06;100.00
72612;BME280;60655;52.182;4.474;2023-10-19T03:06:38;98993.84;;;14.17;100.00
72612;BME280;60655;52.182;4.474;2023-10-19T03:08:41;99001.16;;;14.11;100.00
72612;BME280;60655;52.182;4.474;2023-10-19T03:10:42;98999.16;;;14.22;100.00
72612;BME280;60655;52.182;4.474;2023-10-19T03:12:42;98995.44;;;14.18;100.00
72612;BME280;60655;52.182;4.474;2023-10-19T03:14:43;98991.13;;;14.22;100.00
72612;BME280;60655;52.182;4.474;2023-10-19T03:16:48;98995.34;;;14.28;100.00
72612;BME280;60655;52.182;4.474;2023-10-19T03:18:50;98999.38;;;14.26;100.00
72612;BME280;60655;52.182;4.474;2023-10-19T03:20:51;98992.72;;;14.23;100.00
72612;BME280;60655;52.182;4.474;2023-10-19T03:22:52;99001.53;;;14.24;100.00
72612;BME280;60655;52.182;4.474;2023-10-19T03:24:53;98997.31;;;14.17;100.00
72612;BME280;60655;52.182;4.474;2023-10-19T03:27:15;98997.03;;;14.19;100.00
72612;BME280;60655;52.182;4.474;2023-10-19T03:29:22;98996.19;;;14.24;100.00
72612;BME280;60655;52.182;4.474;2023-10-19T03:31:28;98990.91;;;14.18;100.00
72612;BME280;60655;52.182;4.474;2023-10-19T03:33:30;98991.94;;;14.23;100.00
72612;BME280;60655;52.182;4.474;2023-10-19T03:35:31;98993.34;;;14.15;100.00
72612;BME280;60655;52.182;4.474;2023-10-19T03:37:32;98991.47;;;14.15;100.00
72612;BME280;60655;52.182;4.474;2023-10-19T03:39:35;98991.94;;;14.23;100.00
72612;BME280;60655;52.182;4.474;2023-10-19T03:41:40;98986.22;;;14.10;100.00
72612;BME280;60655;52.182;4.474;2023-10-19T03:43:45;98989.13;;;14.14;100.00
72612;BME280;60655;52.182;4.474;2023-10-19T03:45:46;98994.75;;;14.12;100.00
72612;BME280;60655;52.182;4.474;2023-10-19T03:47:53;98982.28;;;14.03;100.00
72612;BME280;60655;52.182;4.474;2023-10-19T03:49:56;98989.97;;;14.09;100.00
72612;BME280;60655;52.182;4.474;2023-10-19T03:52:00;98993.47;;;14.05;100.00
72612;BME280;60655;52.182;4.474;2023-10-19T03:54:21;98990.00;;;14.04;100.00
72612;BME280;60655;52.182;4.474;2023-10-19T03:56:22;98994.78;;;14.07;100.00
72612;BME280;60655;52.182;4.474;2023-10-19T03:58:24;98987.34;;;14.04;100.00
72612;BME280;60655;52.182;4.474;2023-10-19T04:00:27;98989.16;;;14.09;100.00
72612;BME280;60655;52.182;4.474;2023-10-19T04:02:29;98990.00;;;14.04;100.00
72612;BME280;60655;52.182;4.474;2023-10-19T04:04:36;98984.63;;;14.09;100.00
72612;BME280;60655;52.182;4.474;2023-10-19T04:06:37;98988.09;;;14.10;100.00
72612;BME280;60655;52.182;4.474;2023-10-19T04:08:38;98990.53;;;14.06;100.00
72612;BME280;60655;52.182;4.474;2023-10-19T04:10:39;98984.63;;;14.09;100.00
72612;BME280;60655;52.182;4.474;2023-10-19T04:12:45;98988.94;;;14.05;100.00
72612;BME280;60655;52.182;4.474;2023-10-19T04:14:46;98992.69;;;14.04;100.00
72612;BME280;60655;52.182;4.474;2023-10-19T04:16:47;98988.13;;;14.05;100.00
72612;BME280;60655;52.182;4.474;2023-10-19T04:18:49;98989.78;;;14.01;100.00
72612;BME280;60655;52.182;4.474;2023-10-19T04:20:50;98990.75;;;14.10;100.00
72612;BME280;60655;52.182;4.474;2023-10-19T04:22:51;98984.66;;;14.04;100.00
72612;BME280;60655;52.182;4.474;2023-10-19T04:24:52;98987.63;;;14.03;100.00
72612;BME280;60655;52.182;4.474;2023-10-19T04:26:53;98991.31;;;14.07;100.00
72612;BME280;60655;52.182;4.474;2023-10-19T04:28:56;98993.72;;;14.08;100.00
72612;BME280;60655;52.182;4.474;2023-10-19T04:30:57;98992.41;;;14.06;100.00
72612;BME280;60655;52.182;4.474;2023-10-19T04:33:03;98992.13;;;14.07;100.00
72612;BME280;60655;52.182;4.474;2023-10-19T04:35:09;98979.38;;;13.99;100.00
72612;BME280;60655;52.182;4.474;2023-10-19T04:37:10;98985.94;;;14.12;100.00
72612;BME280;60655;52.182;4.474;2023-10-19T04:39:13;98991.56;;;14.10;100.00
72612;BME280;60655;52.182;4.474;2023-10-19T04:41:14;98980.66;;;14.07;100.00
72612;BME280;60655;52.182;4.474;2023-10-19T04:43:15;98994.50;;;14.09;100.00
72612;BME280;60655;52.182;4.474;2023-10-19T04:45:19;98992.63;;;14.09;100.00
72612;BME280;60655;52.182;4.474;2023-10-19T04:47:20;98998.78;;;14.10;100.00
72612;BME280;60655;52.182;4.474;2023-10-19T04:49:22;98997.47;;;14.07;100.00
72612;BME280;60655;52.182;4.474;2023-10-19T04:51:23;98995.81;;;14.11;100.00
72612;BME280;60655;52.182;4.474;2023-10-19T04:53:25;98997.41;;;14.12;100.00
72612;BME280;60655;52.182;4.474;2023-10-19T04:55:25;98995.25;;;14.14;100.00
72612;BME280;60655;52.182;4.474;2023-10-19T04:57:27;98995.81;;;14.11;100.00
72612;BME280;60655;52.182;4.474;2023-10-19T04:59:28;98996.91;;;14.10;100.00
72612;BME280;60655;52.182;4.474;2023-10-19T05:01:33;98992.13;;;14.07;100.00
72612;BME280;60655;52.182;4.474;2023-10-19T05:03:34;99001.44;;;14.10;100.00
72612;BME280;60655;52.182;4.474;2023-10-19T05:05:35;98989.16;;;14.09;100.00
72612;BME280;60655;52.182;4.474;2023-10-19T05:07:36;98996.63;;;14.12;100.00
72612;BME280;60655;52.182;4.474;2023-10-19T05:09:38;99012.28;;;14.18;100.00
72612;BME280;60655;52.182;4.474;2023-10-19T05:11:42;99011.72;;;14.22;100.00
72612;BME280;60655;52.182;4.474;2023-10-19T05:13:44;99015.19;;;14.22;100.00
72612;BME280;60655;52.182;4.474;2023-10-19T05:15:45;99004.53;;;14.17;100.00
72612;BME280;60655;52.182;4.474;2023-10-19T05:17:46;99011.47;;;14.18;100.00
72612;BME280;60655;52.182;4.474;2023-10-19T05:19:47;99009.59;;;14.18;100.00
72612;BME280;60655;52.182;4.474;2023-10-19T05:21:47;99009.03;;;14.22;100.00
72612;BME280;60655;52.182;4.474;2023-10-19T05:23:48;99012.44;;;14.27;100.00
72612;BME280;60655;52.182;4.474;2023-10-19T05:25:51;99011.28;;;14.14;100.00
72612;BME280;60655;52.182;4.474;2023-10-19T05:27:53;99012.50;;;14.22;100.00
72612;BME280;60655;52.182;4.474;2023-10-19T05:29:53;99009.59;;;14.18;100.00
72612;BME280;60655;52.182;4.474;2023-10-19T05:31:54;99017.78;;;14.27;100.00
72612;BME280;60655;52.182;4.474;2023-10-19T05:33:58;99003.97;;;14.20;100.00
72612;BME280;60655;52.182;4.474;2023-10-19T05:35:59;99010.63;;;14.23;100.00
72612;BME280;60655;52.182;4.474;2023-10-19T05:38:02;99012.22;;;14.24;100.00
72612;BME280;60655;52.182;4.474;2023-10-19T05:40:03;99006.88;;;14.24;100.00
72612;BME280;60655;52.182;4.474;2023-10-19T05:42:05;99008.28;;;14.16;100.00
72612;BME280;60655;52.182;4.474;2023-10-19T05:44:07;99006.50;;;14.11;100.00
72612;BME280;60655;52.182;4.474;2023-10-19T05:46:08;99005.28;;;14.23;100.00
72612;BME280;60655;52.182;4.474;2023-10-19T05:48:11;99008.00;;;14.17;100.00
72612;BME280;60655;52.182;4.474;2023-10-19T05:50:12;99005.41;;;14.12;100.00
72612;BME280;60655;52.182;4.474;2023-10-19T05:52:15;99002.47;;;14.14;100.00
72612;BME280;60655;52.182;4.474;2023-10-19T05:54:16;99002.75;;;14.12;100.00
72612;BME280;60655;52.182;4.474;2023-10-19T05:56:17;99005.94;;;14.14;100.00
72612;BME280;60655;52.182;4.474;2023-10-19T05:58:21;98999.72;;;14.19;100.00
72612;BME280;60655;52.182;4.474;2023-10-19T06:00:22;99008.00;;;14.17;100.00
72612;BME280;60655;52.182;4.474;2023-10-19T06:02:26;98997.94;;;14.14;100.00
72612;BME280;60655;52.182;4.474;2023-10-19T06:04:27;98997.41;;;14.12;100.00
72612;BME280;60655;52.182;4.474;2023-10-19T06:06:28;99002.75;;;14.12;100.00
72612;BME280;60655;52.182;4.474;2023-10-19T06:08:29;99010.81;;;14.07;100.00
72612;BME280;60655;52.182;4.474;2023-10-19T06:10:31;99009.22;;;14.06;100.00
72612;BME280;60655;52.182;4.474;2023-10-19T06:12:33;99020.56;;;14.17;100.00
72612;BME280;60655;52.182;4.474;2023-10-19T06:14:35;99026.19;;;14.15;100.00
72612;BME280;60655;52.182;4.474;2023-10-19T06:16:36;99024.13;;;14.12;100.00
72612;BME280;60655;52.182;4.474;2023-10-19T06:18:37;99017.47;;;14.10;100.00
72612;BME280;60655;52.182;4.474;2023-10-19T06:20:43;99017.69;;;14.13;100.00
72612;BME280;60655;52.182;4.474;2023-10-19T06:22:44;99028.56;;;14.17;100.00
72612;BME280;60655;52.182;4.474;2023-10-19T06:24:50;99034.19;;;14.15;100.00
72612;BME280;60655;52.182;4.474;2023-10-19T06:26:52;99029.44;;;14.12;100.00
72612;BME280;60655;52.182;4.474;2023-10-19T06:28:53;99026.41;;;14.19;100.00
72612;BME280;60655;52.182;4.474;2023-10-19T06:30:59;99036.31;;;14.18;100.00
72612;BME280;60655;52.182;4.474;2023-10-19T06:33:00;99035.00;;;14.16;100.00
72612;BME280;60655;52.182;4.474;2023-10-19T06:35:01;99036.88;;;14.15;100.00
72612;BME280;60655;52.182;4.474;2023-10-19T06:37:02;99041.94;;;14.17;100.00
72612;BME280;60655;52.182;4.474;2023-10-19T06:39:04;99026.97;;;14.16;100.00
72612;BME280;60655;52.182;4.474;2023-10-19T06:41:13;99050.59;;;14.33;100.00
72612;BME280;60655;52.182;4.474;2023-10-19T06:43:14;99048.47;;;14.30;100.00
72612;BME280;60655;52.182;4.474;2023-10-19T06:45:16;99054.91;;;14.29;100.00
72612;BME280;60655;52.182;4.474;2023-10-19T06:47:17;99049.56;;;14.29;100.00
72612;BME280;60655;52.182;4.474;2023-10-19T06:49:18;99047.91;;;14.33;100.00
72612;BME280;60655;52.182;4.474;2023-10-19T06:51:20;99052.41;;;14.37;100.00
72612;BME280;60655;52.182;4.474;2023-10-19T06:53:21;99056.16;;;14.36;100.00
72612;BME280;60655;52.182;4.474;2023-10-19T06:55:22;99055.06;;;14.42;100.00
72612;BME280;60655;52.182;4.474;2023-10-19T06:57:23;99048.13;;;14.41;100.00
72612;BME280;60655;52.182;4.474;2023-10-19T06:59:24;99057.75;;;14.42;100.00
72612;BME280;60655;52.182;4.474;2023-10-19T07:01:25;99054.19;;;14.47;100.00
72612;BME280;60655;52.182;4.474;2023-10-19T07:03:30;99056.56;;;14.48;100.00
72612;BME280;60655;52.182;4.474;2023-10-19T07:05:31;99062.00;;;14.43;100.00
72612;BME280;60655;52.182;4.474;2023-10-19T07:07:32;99056.66;;;14.43;100.00
72612;BME280;60655;52.182;4.474;2023-10-19T07:09:34;99057.13;;;14.45;100.00
72612;BME280;60655;52.182;4.474;2023-10-19T07:11:35;99054.75;;;14.44;100.00
72612;BME280;60655;52.182;4.474;2023-10-19T07:13:36;99057.47;;;14.39;100.00
72612;BME280;60655;52.182;4.474;2023-10-19T07:15:37;99054.19;;;14.47;100.00
72612;BME280;60655;52.182;4.474;2023-10-19T07:17:38;99058.97;;;14.50;100.00
72612;BME280;60655;52.182;4.474;2023-10-19T07:19:42;99061.13;;;14.48;100.00
72612;BME280;60655;52.182;4.474;2023-10-19T07:21:43;99064.31;;;14.50;100.00
72612;BME280;60655;52.182;4.474;2023-10-19T07:23:49;99065.38;;;14.49;100.00
72612;BME280;60655;52.182;4.474;2023-10-19T07:25:53;99072.03;;;14.51;100.00
72612;BME280;60655;52.182;4.474;2023-10-19T07:28:00;99068.28;;;14.52;100.00
72612;BME280;60655;52.182;4.474;2023-10-19T07:30:01;99072.50;;;14.59;100.00
72612;BME280;60655;52.182;4.474;2023-10-19T07:32:06;99065.78;;;14.61;100.00
72612;BME280;60655;52.182;4.474;2023-10-19T07:34:06;99070.84;;;14.63;100.00
72612;BME280;60655;52.182;4.474;2023-10-19T07:36:13;99062.56;;;14.64;100.00
72612;BME280;60655;52.182;4.474;2023-10-19T07:38:15;99073.19;;;14.69;100.00
72612;BME280;60655;52.182;4.474;2023-10-19T07:40:17;99069.78;;;14.64;100.00
72612;BME280;60655;52.182;4.474;2023-10-19T07:42:19;99073.47;;;14.68;100.00
72612;BME280;60655;52.182;4.474;2023-10-19T07:44:21;99056.13;;;14.65;100.00
72612;BME280;60655;52.182;4.474;2023-10-19T07:46:22;99079.03;;;14.71;100.00
72612;BME280;60655;52.182;4.474;2023-10-19T07:48:22;99077.66;;;14.74;100.00
72612;BME280;60655;52.182;4.474;2023-10-19T07:50:23;99077.88;;;14.77;100.00
72612;BME280;60655;52.182;4.474;2023-10-19T07:52:24;99081.91;;;14.75;100.00
72612;BME280;60655;52.182;4.474;2023-10-19T07:54:25;99082.66;;;14.80;100.00
72612;BME280;60655;52.182;4.474;2023-10-19T07:56:28;99086.63;;;14.83;100.00
72612;BME280;60655;52.182;4.474;2023-10-19T07:58:29;99088.50;;;14.82;100.00
72612;BME280;60655;52.182;4.474;2023-10-19T08:00:31;99090.03;;;14.89;100.00
72612;BME280;60655;52.182;4.474;2023-10-19T08:02:34;99085.50;;;14.89;100.00
72612;BME280;60655;52.182;4.474;2023-10-19T08:04:42;99079.06;;;14.90;100.00
72612;BME280;60655;52.182;4.474;2023-10-19T08:06:43;99076.63;;;14.94;100.00
72612;BME280;60655;52.182;4.474;2023-10-19T08:08:44;99063.31;;;14.89;100.00
72612;BME280;60655;52.182;4.474;2023-10-19T08:10:46;99071.72;;;15.01;100.00
72612;BME280;60655;52.182;4.474;2023-10-19T08:12:49;99076.19;;;15.05;100.00
72612;BME280;60655;52.182;4.474;2023-10-19T08:14:50;99073.72;;;15.09;100.00
72612;BME280;60655;52.182;4.474;2023-10-19T08:16:52;99087.75;;;15.19;100.00
72612;BME280;60655;52.182;4.474;2023-10-19T08:18:53;99078.38;;;15.22;100.00
72612;BME280;60655;52.182;4.474;2023-10-19T08:20:54;99074.91;;;15.22;100.00
72612;BME280;60655;52.182;4.474;2023-10-19T08:22:56;99075.69;;;15.22;100.00
72612;BME280;60655;52.182;4.474;2023-10-19T08:24:58;99088.91;;;15.32;100.00
72612;BME280;60655;52.182;4.474;2023-10-19T08:26:58;99085.16;;;15.33;100.00
72612;BME280;60655;52.182;4.474;2023-10-19T08:29:00;99078.34;;;15.41;100.00
72612;BME280;60655;52.182;4.474;2023-10-19T08:31:01;99083.41;;;15.42;100.00
72612;BME280;60655;52.182;4.474;2023-10-19T08:33:02;99069.38;;;15.32;100.00
72612;BME280;60655;52.182;4.474;2023-10-19T08:35:04;99069.97;;;15.47;100.00
72612;BME280;60655;52.182;4.474;2023-10-19T08:37:06;99061.34;;;15.50;100.00
72612;BME280;60655;52.182;4.474;2023-10-19T08:39:08;99071.25;;;15.50;100.00
72612;BME280;60655;52.182;4.474;2023-10-19T08:41:09;99071.97;;;15.56;100.00
72612;BME280;60655;52.182;4.474;2023-10-19T08:43:11;99075.75;;;15.54;100.00
72612;BME280;60655;52.182;4.474;2023-10-19T08:45:14;99076.31;;;15.51;100.00
72612;BME280;60655;52.182;4.474;2023-10-19T08:47:16;99072.84;;;15.51;100.00
72612;BME280;60655;52.182;4.474;2023-10-19T08:49:18;99068.75;;;15.59;100.00
72612;BME280;60655;52.182;4.474;2023-10-19T08:51:20;99074.59;;;15.61;100.00
72612;BME280;60655;52.182;4.474;2023-10-19T08:53:21;99065.47;;;15.62;100.00
72612;BME280;60655;52.182;4.474;2023-10-19T08:55:23;99060.41;;;15.60;100.00
72612;BME280;60655;52.182;4.474;2023-10-19T08:57:24;99056.34;;;15.63;100.00
72612;BME280;60655;52.182;4.474;2023-10-19T08:59:25;99056.50;;;15.71;100.00
72612;BME280;60655;52.182;4.474;2023-10-19T09:01:27;99053.75;;;15.76;100.00
72612;BME280;60655;52.182;4.474;2023-10-19T09:03:28;99054.59;;;15.72;100.00
72612;BME280;60655;52.182;4.474;2023-10-19T09:05:29;99051.84;;;15.77;100.00
72612;BME280;60655;52.182;4.474;2023-10-19T09:07:30;99061.69;;;15.95;100.00
72612;BME280;60655;52.182;4.474;2023-10-19T09:09:31;99060.81;;;15.86;100.00
72612;BME280;60655;52.182;4.474;2023-10-19T09:11:33;99059.75;;;16.01;100.00
72612;BME280;60655;52.182;4.474;2023-10-19T09:13:47;99060.16;;;16.08;100.00
72612;BME280;60655;52.182;4.474;2023-10-19T09:15:49;99050.66;;;16.15;100.00
72612;BME280;60655;52.182;4.474;2023-10-19T09:17:50;99062.75;;;16.13;100.00
72612;BME280;60655;52.182;4.474;2023-10-19T09:19:55;99042.09;;;16.13;100.00
72612;BME280;60655;52.182;4.474;2023-10-19T09:21:57;99058.88;;;16.19;100.00
72612;BME280;60655;52.182;4.474;2023-10-19T09:23:59;99048.66;;;16.21;100.00
72612;BME280;60655;52.182;4.474;2023-10-19T09:26:01;99053.91;;;16.26;100.00
72612;BME280;60655;52.182;4.474;2023-10-19T09:28:06;99046.97;;;16.25;100.00
72612;BME280;60655;52.182;4.474;2023-10-19T09:30:08;99051.53;;;16.25;100.00
72612;BME280;60655;52.182;4.474;2023-10-19T09:32:09;99040.72;;;16.30;100.00
72612;BME280;60655;52.182;4.474;2023-10-19T09:34:12;99035.56;;;16.33;100.00
72612;BME280;60655;52.182;4.474;2023-10-19T09:36:13;99046.19;;;16.38;100.00
72612;BME280;60655;52.182;4.474;2023-10-19T09:38:15;99042.63;;;16.43;100.00
72612;BME280;60655;52.182;4.474;2023-10-19T09:40:16;99029.59;;;16.50;100.00
72612;BME280;60655;52.182;4.474;2023-10-19T09:42:17;99034.69;;;16.65;100.00
72612;BME280;60655;52.182;4.474;2023-10-19T09:44:20;99025.91;;;16.60;100.00
72612;BME280;60655;52.182;4.474;2023-10-19T09:46:30;99026.41;;;16.62;100.00
72612;BME280;60655;52.182;4.474;2023-10-19T09:48:32;99020.97;;;16.67;100.00
72612;BME280;60655;52.182;4.474;2023-10-19T09:50:36;99035.09;;;16.72;100.00
72612;BME280;60655;52.182;4.474;2023-10-19T09:52:39;99030.19;;;16.61;100.00
72612;BME280;60655;52.182;4.474;2023-10-19T09:54:54;99016.97;;;16.50;100.00
72612;BME280;60655;52.182;4.474;2023-10-19T09:57:02;99026.50;;;16.57;100.00
72612;BME280;60655;52.182;4.474;2023-10-19T10:02:09;99020.25;;;16.47;100.00
72612;BME280;60655;52.182;4.474;2023-10-19T10:04:31;99022.94;;;16.47;100.00
72612;BME280;60655;52.182;4.474;2023-10-19T10:08:51;99030.88;;;16.52;100.00
72612;BME280;60655;52.182;4.474;2023-10-19T10:10:52;99035.34;;;16.57;100.00
72612;BME280;60655;52.182;4.474;2023-10-19T10:12:53;99022.28;;;16.42;100.00
72612;BME280;60655;52.182;4.474;2023-10-19T10:14:56;99030.69;;;16.49;100.00
72612;BME280;60655;52.182;4.474;2023-10-19T10:17:02;99020.97;;;16.39;100.00
72612;BME280;60655;52.182;4.474;2023-10-19T10:19:04;99035.16;;;16.40;100.00
72612;BME280;60655;52.182;4.474;2023-10-19T10:21:12;99042.31;;;16.44;100.00
72612;BME280;60655;52.182;4.474;2023-10-19T10:23:20;99042.19;;;16.49;100.00
72612;BME280;60655;52.182;4.474;2023-10-19T10:25:26;99043.22;;;16.40;100.00
72612;BME280;60655;52.182;4.474;2023-10-19T10:27:28;99034.88;;;16.41;100.00
72612;BME280;60655;52.182;4.474;2023-10-19T10:29:31;99021.78;;;16.40;100.00
72612;BME280;60655;52.182;4.474;2023-10-19T10:31:35;99020.25;;;16.47;100.00
72612;BME280;60655;52.182;4.474;2023-10-19T10:33:41;99010.63;;;16.60;100.00
72612;BME280;60655;52.182;4.474;2023-10-19T10:37:53;99007.22;;;16.96;100.00
72612;BME280;60655;52.182;4.474;2023-10-19T10:39:58;99024.34;;;17.08;100.00
72612;BME280;60655;52.182;4.474;2023-10-19T10:42:02;99031.59;;;17.08;100.00
72612;BME280;60655;52.182;4.474;2023-10-19T10:44:03;99035.34;;;17.20;100.00
72612;BME280;60655;52.182;4.474;2023-10-19T10:46:05;99034.56;;;17.20;100.00
72612;BME280;60655;52.182;4.474;2023-10-19T10:48:15;99036.09;;;17.35;100.00
72612;BME280;60655;52.182;4.474;2023-10-19T10:50:19;99025.78;;;17.50;100.00
72612;BME280;60655;52.182;4.474;2023-10-19T10:54:25;99028.66;;;17.76;100.00
72612;BME280;60655;52.182;4.474;2023-10-19T10:56:26;99025.94;;;17.99;100.00